Time;durP1;ratioP1;P1;durP2;ratioP2;P2;SDS_P1;SDS_P2;PMS_P1;PMS_P2;Temp;Humidity;BMP_temperature;BMP_pressure;BME280_temperature;BME280_humidity;BME280_pressure;Samples;Min_cycle;Max_cycle;Signal;HPM_P1;HPM_P2
2022/04/02 00:00:22;;;;;;;6.95;3.28;;;-0.80;99.90;;;;;;4807435;29;20050;-75
2022/04/02 00:02:50;;;;;;;4.97;4.20;;;-0.90;99.90;;;;;;4802005;29;20066;-77
2022/04/02 00:05:16;;;;;;;8.13;4.53;;;-1.00;99.90;;;;;;4801351;29;20051;-77
2022/04/02 00:07:44;;;;;;;9.18;4.20;;;-0.90;99.90;;;;;;4792050;29;20087;-77
2022/04/02 00:10:11;;;;;;;6.00;4.03;;;-0.90;99.90;;;;;;4791789;29;20486;-77
2022/04/02 00:12:37;;;;;;;5.25;4.75;;;-0.90;99.90;;;;;;4777194;29;20059;-76
2022/04/02 00:15:05;;;;;;;6.28;5.15;;;-0.80;99.90;;;;;;4792760;29;20087;-77
2022/04/02 00:17:33;;;;;;;5.60;5.20;;;-0.90;99.90;;;;;;4793690;29;20086;-77
2022/04/02 00:20:00;;;;;;;8.18;5.95;;;-0.90;99.90;;;;;;4790674;29;20055;-77
2022/04/02 00:22:26;;;;;;;8.13;6.93;;;-0.80;99.90;;;;;;4823507;24;20146;-75
2022/04/02 00:24:53;;;;;;;7.50;6.72;;;-0.80;99.90;;;;;;4804011;29;20129;-74
2022/04/02 00:27:20;;;;;;;10.27;8.98;;;-0.80;99.90;;;;;;4817384;29;20078;-76
2022/04/02 00:29:47;;;;;;;8.90;8.25;;;-0.70;99.90;;;;;;4778612;29;20493;-75
2022/04/02 00:32:13;;;;;;;9.52;8.73;;;-0.70;99.90;;;;;;4790630;29;20241;-75
2022/04/02 00:34:40;;;;;;;9.05;8.43;;;-0.60;99.90;;;;;;4795589;29;20058;-75
2022/04/02 00:37:07;;;;;;;9.30;8.30;;;-0.70;99.90;;;;;;4783114;29;20146;-74
2022/04/02 00:39:34;;;;;;;10.10;9.23;;;-0.70;99.90;;;;;;4778071;29;20133;-75
2022/04/02 00:42:01;;;;;;;8.70;7.90;;;-0.70;99.90;;;;;;4793871;29;20451;-75
2022/04/02 00:44:28;;;;;;;7.80;7.20;;;-0.70;99.90;;;;;;4778244;29;20454;-74
2022/04/02 00:46:55;;;;;;;8.30;7.53;;;-0.70;99.90;;;;;;4784627;29;20046;-75
2022/04/02 00:49:22;;;;;;;8.27;7.47;;;-0.80;99.90;;;;;;4781481;29;20237;-75
2022/04/02 00:51:50;;;;;;;11.18;7.78;;;-0.80;99.90;;;;;;4797545;29;20043;-75
2022/04/02 00:54:19;;;;;;;11.25;7.03;;;-0.80;99.90;;;;;;4779263;29;20115;-75
2022/04/02 00:56:47;;;;;;;7.97;7.28;;;-0.70;99.90;;;;;;4788833;29;20300;-75
2022/04/02 00:59:14;;;;;;;9.38;8.52;;;-0.70;99.90;;;;;;4793763;29;20088;-74
2022/04/02 01:01:44;;;;;;;8.98;8.10;;;-0.70;99.90;;;;;;4789664;29;20065;-75
2022/04/02 01:04:12;;;;;;;8.65;7.85;;;-0.70;99.90;;;;;;4798633;29;20058;-74
2022/04/02 01:06:42;;;;;;;8.95;8.23;;;-0.60;99.90;;;;;;4796610;29;20059;-75
2022/04/02 01:09:19;;;;;;;11.30;10.02;;;-0.60;99.90;;;;;;4780534;29;20384;-75
2022/04/02 01:11:52;;;;;;;11.55;10.50;;;-0.50;99.90;;;;;;4781169;29;20070;-75
2022/04/02 01:14:20;;;;;;;11.27;10.18;;;-0.50;99.90;;;;;;4789152;29;20055;-75
2022/04/02 01:16:50;;;;;;;11.75;10.63;;;-0.50;99.90;;;;;;4793883;29;20137;-75
2022/04/02 01:19:20;;;;;;;10.80;9.90;;;-0.50;99.90;;;;;;4795486;29;20073;-75
2022/04/02 01:21:55;;;;;;;11.68;10.20;;;-0.40;99.90;;;;;;4764360;29;20062;-74
2022/04/02 01:24:34;;;;;;;11.80;10.70;;;-0.40;99.90;;;;;;4780808;29;20047;-75
2022/04/02 01:27:00;;;;;;;11.25;10.35;;;-0.40;99.90;;;;;;4791221;29;20054;-74
2022/04/02 01:29:34;;;;;;;11.38;10.55;;;-0.40;99.90;;;;;;4779733;29;20057;-75
2022/04/02 01:32:06;;;;;;;11.80;10.90;;;-0.30;99.90;;;;;;4777443;29;20572;-75
2022/04/02 01:34:34;;;;;;;12.52;11.40;;;-0.40;99.90;;;;;;4766606;29;20053;-75
2022/04/02 01:37:13;;;;;;;12.27;11.13;;;-0.40;99.90;;;;;;4763140;30;20048;-74
2022/04/02 01:39:44;;;;;;;12.38;11.20;;;-0.40;99.90;;;;;;4780378;29;20133;-75
2022/04/02 01:42:17;;;;;;;11.95;10.98;;;-0.40;99.90;;;;;;4785591;29;20084;-75
2022/04/02 01:44:52;;;;;;;12.02;10.90;;;-0.40;99.90;;;;;;4793611;29;20055;-75
2022/04/02 01:47:31;;;;;;;12.00;10.90;;;-0.40;99.90;;;;;;4779489;29;20212;-75
2022/04/02 01:50:02;;;;;;;12.40;11.13;;;-0.40;99.90;;;;;;4778553;29;20405;-74
2022/04/02 01:52:30;;;;;;;12.10;10.98;;;-0.40;99.90;;;;;;4778918;29;20250;-75
2022/04/02 01:54:57;;;;;;;10.57;9.85;;;-0.40;99.90;;;;;;4778835;29;20470;-75
2022/04/02 01:57:24;;;;;;;11.68;10.68;;;-0.40;99.90;;;;;;4785910;29;20112;-75
2022/04/02 01:59:51;;;;;;;11.63;10.75;;;-0.30;99.90;;;;;;4779185;29;20146;-75
2022/04/02 02:02:20;;;;;;;12.05;11.15;;;-0.30;99.90;;;;;;4784766;29;20058;-74
2022/04/02 02:04:48;;;;;;;11.98;10.73;;;-0.30;99.90;;;;;;4797335;29;20042;-75
2022/04/02 02:07:15;;;;;;;11.02;10.13;;;-0.40;99.90;;;;;;4808132;29;20154;-75
2022/04/02 02:09:47;;;;;;;12.00;11.10;;;-0.40;99.90;;;;;;4775695;30;20051;-75
2022/04/02 02:12:39;;;;;;;11.20;10.50;;;-0.40;99.90;;;;;;4764864;29;20061;-75
2022/04/02 02:15:19;;;;;;;11.50;10.35;;;-0.30;99.90;;;;;;4785585;29;20362;-75
2022/04/02 02:17:56;;;;;;;12.65;11.40;;;-0.40;99.90;;;;;;4779379;29;20289;-75
2022/04/02 02:20:23;;;;;;;10.15;9.45;;;-0.40;99.90;;;;;;4778422;29;20119;-74
2022/04/02 02:22:50;;;;;;;14.30;10.75;;;-0.40;99.90;;;;;;4778676;29;20132;-75
2022/04/02 02:25:18;;;;;;;11.35;10.13;;;-0.50;99.90;;;;;;4779176;29;20120;-75
2022/04/02 02:27:48;;;;;;;12.00;10.18;;;-0.40;99.90;;;;;;4803891;29;20057;-75
2022/04/02 02:30:18;;;;;;;11.95;10.93;;;-0.40;99.90;;;;;;4791618;29;20043;-76
2022/04/02 02:32:46;;;;;;;11.65;10.85;;;-0.40;99.90;;;;;;4788636;29;20060;-76
2022/04/02 02:38:11;;;;;;;12.93;11.93;;;-0.40;99.90;;;;;;4774150;29;20138;-75
2022/04/02 02:40:46;;;;;;;11.90;10.80;;;-0.40;99.90;;;;;;4777172;29;20454;-75
2022/04/02 02:43:20;;;;;;;11.52;10.65;;;-0.30;99.90;;;;;;4779743;29;20146;-75
2022/04/02 02:45:48;;;;;;;12.98;11.68;;;-0.30;99.90;;;;;;4786021;29;20119;-75
2022/04/02 02:48:16;;;;;;;12.40;11.50;;;-0.40;99.90;;;;;;4764605;29;20153;-76
2022/04/02 02:50:48;;;;;;;12.57;11.43;;;-0.40;99.90;;;;;;4777249;29;20101;-76
2022/04/02 02:53:16;;;;;;;11.98;10.98;;;-0.40;99.90;;;;;;4778791;29;20583;-76
2022/04/02 02:55:45;;;;;;;12.30;11.30;;;-0.30;99.90;;;;;;4780989;29;20622;-76
2022/04/02 02:58:13;;;;;;;11.23;10.48;;;-0.30;99.90;;;;;;4793614;29;20062;-75
2022/04/02 03:00:41;;;;;;;11.75;10.95;;;-0.30;99.90;;;;;;4807955;29;20070;-76
2022/04/02 03:03:16;;;;;;;12.52;11.27;;;-0.30;99.90;;;;;;4782925;29;20319;-76
2022/04/02 03:05:46;;;;;;;11.75;10.85;;;-0.30;99.90;;;;;;4777889;29;20418;-76
2022/04/02 03:08:13;;;;;;;10.02;9.40;;;-0.30;99.90;;;;;;4778115;29;20300;-75
2022/04/02 03:10:49;;;;;;;10.80;9.75;;;-0.30;99.90;;;;;;4776679;29;20415;-76
2022/04/02 03:13:22;;;;;;;11.70;10.60;;;-0.30;99.90;;;;;;4778467;29;20103;-75
2022/04/02 03:15:53;;;;;;;10.52;9.73;;;-0.30;99.90;;;;;;4771537;29;20466;-75
2022/04/02 03:18:21;;;;;;;10.85;9.85;;;-0.40;99.90;;;;;;4793660;29;20069;-76
2022/04/02 03:20:47;;;;;;;9.90;9.00;;;-0.40;99.90;;;;;;4793654;29;20095;-75
2022/04/02 03:23:22;;;;;;;10.20;9.20;;;-0.50;99.90;;;;;;4760493;30;20065;-76
2022/04/02 03:25:49;;;;;;;9.50;8.60;;;-0.50;99.90;;;;;;4768044;29;20513;-76
2022/04/02 03:28:17;;;;;;;11.02;8.75;;;-0.50;99.90;;;;;;4788619;29;20150;-76
2022/04/02 03:30:44;;;;;;;8.20;7.38;;;-0.50;99.90;;;;;;4792678;29;20367;-76
2022/04/02 03:33:11;;;;;;;11.35;10.25;;;-0.40;99.90;;;;;;4774967;29;20686;-76
2022/04/02 03:35:39;;;;;;;9.35;8.27;;;-0.50;99.90;;;;;;4796049;29;20380;-76
2022/04/02 03:38:08;;;;;;;12.82;8.85;;;-0.60;99.90;;;;;;4796567;29;20054;-76
2022/04/02 03:40:37;;;;;;;10.13;8.60;;;-0.60;99.90;;;;;;4795220;29;20221;-77
2022/04/02 03:43:05;;;;;;;10.63;8.70;;;-0.50;99.90;;;;;;4784065;29;20184;-77
2022/04/02 03:45:35;;;;;;;8.68;7.55;;;-0.60;99.90;;;;;;4784825;29;20058;-76
2022/04/02 03:48:02;;;;;;;10.30;8.55;;;-0.60;99.90;;;;;;4777660;29;20055;-76
2022/04/02 03:50:37;;;;;;;9.85;8.57;;;-0.70;99.90;;;;;;4776935;29;20222;-76
2022/04/02 03:53:05;;;;;;;14.95;8.45;;;-0.70;99.90;;;;;;4777573;29;20379;-76
2022/04/02 03:55:36;;;;;;;9.38;8.43;;;-0.60;99.90;;;;;;4762093;29;20081;-76
2022/04/02 03:58:12;;;;;;;9.85;7.85;;;-0.60;99.90;;;;;;4788244;29;20058;-76
2022/04/02 04:00:39;;;;;;;9.63;8.60;;;-0.70;99.90;;;;;;4791945;29;20146;-76
2022/04/02 04:03:10;;;;;;;9.43;8.40;;;-0.80;99.90;;;;;;4776257;29;20050;-75
2022/04/02 04:05:43;;;;;;;8.48;7.30;;;-0.70;99.90;;;;;;4777475;29;20121;-76
2022/04/02 04:08:11;;;;;;;8.80;7.90;;;-0.80;99.90;;;;;;4776853;29;20093;-76
2022/04/02 04:10:41;;;;;;;8.43;7.38;;;-0.80;99.90;;;;;;4776593;29;20077;-76
2022/04/02 04:13:08;;;;;;;10.05;8.15;;;-0.90;99.90;;;;;;4776907;29;20050;-76
2022/04/02 04:15:38;;;;;;;12.23;8.05;;;-0.90;99.90;;;;;;4768243;29;20050;-76
2022/04/02 04:18:07;;;;;;;7.72;6.97;;;-0.80;99.90;;;;;;4777985;29;20059;-76
2022/04/02 04:20:37;;;;;;;11.07;8.38;;;-0.80;99.90;;;;;;4791482;29;20051;-76
2022/04/02 04:23:07;;;;;;;8.55;7.75;;;-0.90;99.90;;;;;;4793627;29;20158;-75
2022/04/02 04:25:34;;;;;;;10.75;9.00;;;-0.90;99.90;;;;;;4781054;29;20146;-76
2022/04/02 04:28:03;;;;;;;9.82;8.75;;;-0.90;99.90;;;;;;4777737;29;20145;-75
2022/04/02 04:30:31;;;;;;;9.98;9.07;;;-0.90;99.90;;;;;;4785712;29;20065;-77
2022/04/02 04:32:58;;;;;;;11.38;9.07;;;-1.00;99.90;;;;;;4787220;29;20090;-76
2022/04/02 04:35:37;;;;;;;11.30;9.00;;;-1.00;99.90;;;;;;4777202;29;20395;-75
2022/04/02 04:38:04;;;;;;;9.13;8.30;;;-1.00;99.90;;;;;;4782940;29;20055;-76
2022/04/02 04:40:31;;;;;;;11.35;8.60;;;-1.00;99.90;;;;;;4779336;29;20039;-76
2022/04/02 04:42:58;;;;;;;8.82;7.88;;;-1.00;99.90;;;;;;4780448;29;20058;-77
2022/04/02 04:45:31;;;;;;;11.65;8.85;;;-1.00;99.90;;;;;;4784060;29;20054;-75
2022/04/02 04:47:59;;;;;;;11.07;8.98;;;-1.00;99.90;;;;;;4780040;29;20145;-76
2022/04/02 04:50:27;;;;;;;10.20;9.18;;;-1.00;99.90;;;;;;4779541;29;20062;-75
2022/04/02 04:52:58;;;;;;;10.30;8.77;;;-1.00;99.90;;;;;;4779982;29;20047;-75
2022/04/02 04:55:25;;;;;;;12.70;8.48;;;-1.10;99.90;;;;;;4778184;29;20059;-76
2022/04/02 04:57:52;;;;;;;11.75;8.85;;;-1.10;99.90;;;;;;4774414;29;20117;-76
2022/04/02 05:00:26;;;;;;;10.63;9.38;;;-1.10;99.90;;;;;;4775867;29;20054;-78
2022/04/02 05:02:53;;;;;;;9.90;8.88;;;-1.10;99.90;;;;;;4780231;29;20432;-75
2022/04/02 05:05:33;;;;;;;11.43;10.07;;;-1.10;99.90;;;;;;4779434;29;20771;-75
2022/04/02 05:08:07;;;;;;;9.98;8.13;;;-1.10;99.90;;;;;;4779682;29;20426;-75
2022/04/02 05:10:39;;;;;;;10.98;9.85;;;-1.10;99.90;;;;;;4778501;29;20441;-77
2022/04/02 05:13:13;;;;;;;10.48;9.43;;;-1.10;99.90;;;;;;4780474;29;20430;-75
2022/04/02 05:15:45;;;;;;;10.68;9.77;;;-1.20;99.90;;;;;;4785169;29;20058;-75
2022/04/02 05:18:13;;;;;;;10.40;9.15;;;-1.20;99.90;;;;;;4795106;29;20059;-75
2022/04/02 05:20:44;;;;;;;10.77;9.88;;;-1.10;99.90;;;;;;4793123;29;20206;-74
2022/04/02 05:23:11;;;;;;;11.65;9.88;;;-1.10;99.90;;;;;;4794070;29;20116;-74
2022/04/02 05:25:39;;;;;;;11.02;9.93;;;-1.10;99.90;;;;;;4779464;29;20100;-74
2022/04/02 05:28:07;;;;;;;10.05;9.15;;;-1.10;99.90;;;;;;4787641;29;20093;-74
2022/04/02 05:30:37;;;;;;;9.20;8.25;;;-1.20;99.90;;;;;;4789247;29;20058;-75
2022/04/02 05:33:05;;;;;;;10.45;9.00;;;-1.10;99.90;;;;;;4795052;29;20110;-74
2022/04/02 05:35:53;;;;;;;11.00;9.75;;;-1.00;99.90;;;;;;4769474;29;20054;-75
2022/04/02 05:38:20;;;;;;;10.82;9.40;;;-1.00;99.90;;;;;;4798686;29;20150;-77
2022/04/02 05:40:46;;;;;;;14.57;9.60;;;-1.10;99.90;;;;;;4780431;29;20332;-75
2022/04/02 05:43:13;;;;;;;11.40;9.82;;;-1.00;99.90;;;;;;4784086;29;20093;-74
2022/04/02 05:45:41;;;;;;;17.30;14.40;;;-1.00;99.90;;;;;;4792564;29;20057;-74
2022/04/02 05:48:08;;;;;;;54.58;30.80;;;-1.10;99.90;;;;;;4803438;29;20051;-76
2022/04/02 05:50:34;;;;;;;12.75;11.65;;;-1.00;99.90;;;;;;4789006;29;20086;-75
2022/04/02 05:53:04;;;;;;;14.25;11.35;;;-0.90;99.90;;;;;;4782800;29;20258;-78
2022/04/02 05:55:32;;;;;;;11.40;10.60;;;-0.90;99.90;;;;;;4795791;29;20626;-74
2022/04/02 05:57:59;;;;;;;13.75;12.20;;;-0.90;99.90;;;;;;4800674;29;20050;-75
2022/04/02 06:00:27;;;;;;;12.88;11.80;;;-0.90;99.90;;;;;;4802693;29;20135;-76
2022/04/02 06:03:03;;;;;;;13.65;12.55;;;-0.90;99.90;;;;;;4803637;29;20109;-76
2022/04/02 06:05:29;;;;;;;12.85;11.60;;;-0.80;99.90;;;;;;4779381;29;20070;-75
2022/04/02 06:07:56;;;;;;;13.77;12.57;;;-0.70;99.90;;;;;;4796352;29;20055;-78
2022/04/02 06:10:23;;;;;;;12.82;11.77;;;-0.70;99.90;;;;;;4795475;29;20053;-75
2022/04/02 06:12:51;;;;;;;15.10;13.68;;;-0.70;99.90;;;;;;4779520;29;20595;-76
2022/04/02 06:15:19;;;;;;;13.13;12.00;;;-0.70;99.90;;;;;;4768044;29;20143;-76
2022/04/02 06:17:45;;;;;;;12.50;11.60;;;-0.70;99.90;;;;;;4779789;29;20058;-75
2022/04/02 06:20:13;;;;;;;13.80;12.50;;;-0.70;99.90;;;;;;4780003;29;20042;-78
2022/04/02 06:22:40;;;;;;;12.35;11.52;;;-0.80;99.90;;;;;;4816394;24;20066;-77
2022/04/02 06:25:07;;;;;;;13.10;11.82;;;-0.80;99.90;;;;;;4804522;29;20054;-77
2022/04/02 06:27:45;;;;;;;13.32;11.38;;;-0.80;99.90;;;;;;4786197;29;20460;-77
2022/04/02 06:30:13;;;;;;;11.82;11.02;;;-0.80;99.90;;;;;;4787910;29;20096;-76
2022/04/02 06:32:41;;;;;;;12.50;11.38;;;-0.70;99.90;;;;;;4778370;29;20109;-76
2022/04/02 06:35:10;;;;;;;15.05;13.93;;;-0.70;99.90;;;;;;4778512;29;20111;-77
2022/04/02 06:37:40;;;;;;;12.13;11.15;;;-0.70;99.90;;;;;;4777710;29;20051;-76
2022/04/02 06:40:09;;;;;;;13.48;12.25;;;-0.70;99.90;;;;;;4780474;29;20119;-76
2022/04/02 06:42:37;;;;;;;15.40;12.45;;;-0.70;99.90;;;;;;4795168;29;20046;-76
2022/04/02 06:45:09;;;;;;;13.60;11.90;;;-0.70;99.90;;;;;;4792000;29;20365;-76
2022/04/02 06:47:36;;;;;;;13.00;11.88;;;-0.70;99.90;;;;;;4792103;29;20194;-76
2022/04/02 06:50:08;;;;;;;13.10;11.98;;;-0.70;99.90;;;;;;4794795;29;20599;-77
2022/04/02 06:52:37;;;;;;;12.50;11.60;;;-0.60;99.90;;;;;;4778858;29;20065;-77
2022/04/02 06:55:04;;;;;;;14.05;12.25;;;-0.60;99.90;;;;;;4764498;29;20078;-77
2022/04/02 06:57:31;;;;;;;12.90;11.90;;;-0.60;99.90;;;;;;4791615;29;20110;-78
2022/04/02 06:59:58;;;;;;;12.60;11.70;;;-0.40;99.90;;;;;;4778533;29;20069;-76
2022/04/02 07:02:24;;;;;;;13.63;12.48;;;-0.40;99.90;;;;;;4763548;29;20084;-76
2022/04/02 07:04:51;;;;;;;12.73;11.40;;;-0.40;99.90;;;;;;4763932;29;20741;-77
2022/04/02 07:07:19;;;;;;;14.32;13.10;;;-0.20;99.90;;;;;;4778723;29;20059;-77
2022/04/02 07:09:46;;;;;;;13.18;12.27;;;-0.10;99.90;;;;;;4778827;29;20062;-77
2022/04/02 07:12:13;;;;;;;13.35;12.13;;;-0.20;99.90;;;;;;4778233;29;20537;-76
2022/04/02 07:14:39;;;;;;;14.00;12.00;;;-0.30;99.90;;;;;;4791357;29;20810;-76
2022/04/02 07:17:06;;;;;;;13.18;12.23;;;-0.20;99.90;;;;;;4792514;29;20070;-75
2022/04/02 07:19:36;;;;;;;16.85;15.55;;;-0.30;99.90;;;;;;4777748;29;20129;-77
2022/04/02 07:22:10;;;;;;;16.17;14.57;;;-0.30;99.90;;;;;;4777183;29;20143;-76
2022/04/02 07:24:39;;;;;;;13.18;11.98;;;-0.20;99.90;;;;;;4778618;29;20792;-76
2022/04/02 07:27:07;;;;;;;14.90;13.40;;;-0.10;99.90;;;;;;4785011;29;20540;-75
2022/04/02 07:29:34;;;;;;;14.20;13.10;;;-0.10;99.90;;;;;;4776926;29;20111;-75
2022/04/02 07:32:02;;;;;;;15.07;13.88;;;-0.10;99.90;;;;;;4777252;29;20043;-75
2022/04/02 07:34:29;;;;;;;16.33;15.02;;;0.00;99.90;;;;;;4777394;29;20111;-76
2022/04/02 07:37:17;;;;;;;15.05;13.85;;;-0.10;99.90;;;;;;4762685;29;20127;-76
2022/04/02 07:40:05;;;;;;;14.50;12.93;;;-0.10;99.90;;;;;;4763224;29;20086;-76
2022/04/02 07:42:38;;;;;;;14.65;13.52;;;-0.10;99.90;;;;;;4776743;29;20474;-76
2022/04/02 07:45:06;;;;;;;14.38;13.30;;;0.00;99.90;;;;;;4787214;29;20059;-75
2022/04/02 07:47:43;;;;;;;14.55;13.45;;;0.00;99.90;;;;;;4793780;29;20051;-76
2022/04/02 07:50:13;;;;;;;16.85;15.35;;;0.10;99.90;;;;;;4777867;29;20055;-75
2022/04/02 07:52:44;;;;;;;17.30;15.77;;;0.10;99.90;;;;;;4793158;29;20050;-76
2022/04/02 07:55:12;;;;;;;15.43;14.05;;;0.30;99.90;;;;;;4790139;29;20175;-76
2022/04/02 07:57:45;;;;;;;15.60;14.45;;;0.40;99.90;;;;;;4775183;29;20153;-75
2022/04/02 08:00:22;;;;;;;17.90;16.60;;;0.30;99.90;;;;;;4774121;29;20147;-75
2022/04/02 08:02:50;;;;;;;24.08;21.70;;;0.50;99.90;;;;;;4763877;29;20168;-76
2022/04/02 08:05:22;;;;;;;53.50;33.55;;;0.50;99.90;;;;;;4790166;29;20171;-76
2022/04/02 08:07:57;;;;;;;51.67;37.20;;;0.70;99.90;;;;;;4774167;29;20143;-75
2022/04/02 08:10:34;;;;;;;28.02;25.05;;;0.60;99.90;;;;;;4773307;29;20601;-75
2022/04/02 08:13:01;;;;;;;23.02;21.45;;;0.80;99.90;;;;;;4773995;29;20046;-74
2022/04/02 08:15:28;;;;;;;22.08;20.30;;;0.90;99.90;;;;;;4775178;29;20121;-75
2022/04/02 08:18:05;;;;;;;20.63;19.33;;;0.90;99.90;;;;;;4782343;29;20043;-75
2022/04/02 08:20:32;;;;;;;20.42;19.17;;;0.90;99.90;;;;;;4789545;29;20103;-76
2022/04/02 08:22:59;;;;;;;21.63;20.25;;;0.90;99.90;;;;;;4768317;29;20063;-76
2022/04/02 08:25:25;;;;;;;21.83;20.33;;;0.80;99.90;;;;;;4776121;29;20137;-75
2022/04/02 08:28:21;;;;;;;23.27;21.58;;;1.10;99.90;;;;;;4777376;29;20078;-74
2022/04/02 08:30:57;;;;;;;22.75;21.33;;;1.00;99.90;;;;;;4790452;29;20051;-75
2022/04/02 08:33:42;;;;;;;23.50;21.92;;;1.00;99.90;;;;;;4776179;29;20082;-76
2022/04/02 08:36:34;;;;;;;23.15;21.45;;;1.00;99.90;;;;;;4773742;29;20534;-77
2022/04/02 08:39:14;;;;;;;26.45;24.50;;;1.00;99.90;;;;;;4773360;29;20094;-75
2022/04/02 08:42:04;;;;;;;26.77;25.25;;;1.00;99.90;;;;;;4789224;29;20433;-75
2022/04/02 08:44:52;;;;;;;25.00;23.00;;;1.10;99.90;;;;;;4775186;29;20146;-73
2022/04/02 08:47:56;;;;;;;29.08;27.17;;;1.10;99.90;;;;;;4774520;29;20139;-74
2022/04/02 08:50:36;;;;;;;27.27;25.70;;;1.10;99.90;;;;;;4791493;29;20055;-76
2022/04/02 08:53:38;;;;;;;29.52;27.80;;;1.30;99.90;;;;;;4775655;29;20052;-76
2022/04/02 08:56:09;;;;;;;31.55;29.73;;;1.30;99.90;;;;;;4772955;29;20093;-73
2022/04/02 08:59:07;;;;;;;28.27;26.45;;;1.30;99.90;;;;;;4747810;29;20128;-74
2022/04/02 09:01:42;;;;;;;27.92;26.20;;;1.10;99.90;;;;;;4789084;29;20229;-74
2022/04/02 09:04:27;;;;;;;;;;;1.00;99.90;;;;;;4785930;29;20123;-75
2022/04/02 09:07:08;;;;;;;32.63;30.30;;;1.30;99.90;;;;;;4774110;29;19977;-75
2022/04/02 09:09:53;;;;;;;29.58;27.60;;;1.40;99.90;;;;;;4775094;29;20094;-75
2022/04/02 09:12:39;;;;;;;;;;;1.30;99.90;;;;;;4792827;29;20628;-75
2022/04/02 09:15:33;;;;;;;30.25;28.33;;;1.10;99.90;;;;;;4777741;29;20091;-74
2022/04/02 09:18:09;;;;;;;28.73;27.05;;;1.10;99.90;;;;;;4786135;29;20055;-73
2022/04/02 09:21:16;;;;;;;27.40;25.50;;;1.30;99.90;;;;;;4776443;29;20054;-73
2022/04/02 09:23:50;;;;;;;25.48;24.00;;;1.40;99.90;;;;;;4759931;29;20087;-73
2022/04/02 09:26:33;;;;;;;32.17;29.05;;;1.50;99.90;;;;;;4776711;29;20055;-73
2022/04/02 09:29:20;;;;;;;24.58;22.98;;;1.40;99.90;;;;;;4792125;29;20051;-73
2022/04/02 09:32:06;;;;;;;25.75;23.90;;;1.50;99.90;;;;;;4782673;29;20448;-74
2022/04/02 09:34:59;;;;;;;24.65;23.15;;;1.30;99.90;;;;;;4777160;29;20108;-75
2022/04/02 09:37:50;;;;;;;24.83;23.52;;;1.40;99.90;;;;;;4777648;29;20047;-74
2022/04/02 09:40:24;;;;;;;24.85;22.90;;;1.40;99.90;;;;;;4791720;29;20070;-73
2022/04/02 09:42:56;;;;;;;24.45;22.58;;;1.40;99.90;;;;;;4774897;29;20059;-74
2022/04/02 09:45:27;;;;;;;24.83;23.02;;;1.30;99.90;;;;;;4780442;29;20058;-75
2022/04/02 09:48:01;;;;;;;22.40;21.00;;;1.20;99.90;;;;;;4770554;29;20066;-74
2022/04/02 09:50:29;;;;;;;23.42;21.77;;;1.10;99.90;;;;;;4792183;29;20099;-74
2022/04/02 09:53:14;;;;;;;23.33;21.73;;;1.30;99.90;;;;;;4791506;29;20108;-74
2022/04/02 09:55:53;;;;;;;23.45;21.98;;;1.30;99.90;;;;;;4757733;29;20497;-74
2022/04/02 09:58:48;;;;;;;23.80;21.58;;;1.30;99.90;;;;;;4793232;29;20059;-74
2022/04/02 10:01:35;;;;;;;24.55;23.00;;;1.20;99.90;;;;;;4764745;29;20811;-73
2022/04/02 10:04:28;;;;;;;23.45;21.88;;;1.40;99.90;;;;;;4776144;29;20052;-73
2022/04/02 10:06:56;;;;;;;24.48;22.98;;;1.60;99.90;;;;;;4775640;29;20074;-73
2022/04/02 10:09:33;;;;;;;24.63;22.95;;;1.40;99.90;;;;;;4791990;29;20058;-73
2022/04/02 10:12:02;;;;;;;25.13;23.50;;;1.40;99.90;;;;;;4791863;29;20701;-74
2022/04/02 10:14:33;;;;;;;20.95;19.85;;;1.50;99.90;;;;;;4777089;29;20544;-73
2022/04/02 10:17:06;;;;;;;23.55;22.08;;;1.70;99.90;;;;;;4776920;29;20073;-72
2022/04/02 10:19:41;;;;;;;23.27;21.90;;;1.40;99.90;;;;;;4775672;29;20055;-74
2022/04/02 10:22:10;;;;;;;25.83;24.23;;;1.40;99.90;;;;;;4790859;29;20050;-74
2022/04/02 10:24:38;;;;;;;27.73;25.90;;;1.70;99.90;;;;;;4793179;29;21054;-73
2022/04/02 10:27:10;;;;;;;25.23;23.52;;;1.70;99.90;;;;;;4783696;29;20530;-73
2022/04/02 10:30:11;;;;;;;25.27;23.58;;;1.90;99.90;;;;;;4775442;29;20101;-73
2022/04/02 10:32:57;;;;;;;26.70;25.17;;;1.70;99.90;;;;;;4775238;29;20062;-73
2022/04/02 10:35:26;;;;;;;27.90;25.95;;;2.00;99.90;;;;;;4792060;29;20054;-73
2022/04/02 10:37:59;;;;;;;29.13;27.23;;;2.00;99.90;;;;;;4784497;29;20113;-73
2022/04/02 10:40:29;;;;;;;28.85;26.90;;;1.90;99.90;;;;;;4790150;29;20113;-72
2022/04/02 10:43:06;;;;;;;25.35;23.85;;;2.20;99.90;;;;;;4761892;29;20082;-73
2022/04/02 10:45:37;;;;;;;27.23;25.48;;;2.10;99.90;;;;;;4760789;29;20057;-74
2022/04/02 10:48:12;;;;;;;27.08;25.50;;;2.00;99.90;;;;;;4792044;29;20074;-74
2022/04/02 10:50:41;;;;;;;27.65;26.05;;;2.20;99.90;;;;;;4760818;29;20088;-74
2022/04/02 10:53:12;;;;;;;27.42;25.73;;;2.30;99.90;;;;;;4775830;29;20047;-74
2022/04/02 10:55:45;;;;;;;26.15;24.30;;;2.30;99.90;;;;;;4775109;29;20047;-75
2022/04/02 10:58:20;;;;;;;26.42;24.83;;;2.30;99.90;;;;;;4792185;29;20117;-74
2022/04/02 11:00:48;;;;;;;30.67;28.17;;;2.20;99.90;;;;;;4774696;29;20175;-73
2022/04/02 11:03:27;;;;;;;28.63;27.02;;;2.10;99.90;;;;;;4760521;29;20059;-73
2022/04/02 11:05:54;;;;;;;28.25;26.33;;;2.20;99.90;;;;;;4775483;29;20518;-72
2022/04/02 11:08:22;;;;;;;28.15;26.45;;;2.30;99.90;;;;;;4790656;29;20063;-73
2022/04/02 11:10:49;;;;;;;31.45;29.55;;;2.50;99.90;;;;;;4774431;29;20677;-72
2022/04/02 11:13:29;;;;;;;28.83;27.27;;;2.50;99.90;;;;;;4791686;29;20211;-72
2022/04/02 11:15:59;;;;;;;29.23;27.73;;;2.40;99.90;;;;;;4774563;29;20266;-73
2022/04/02 11:18:26;;;;;;;30.08;28.67;;;2.20;99.90;;;;;;4791124;29;20724;-71
2022/04/02 11:21:03;;;;;;;30.98;29.17;;;2.10;99.90;;;;;;4774219;29;20051;-73
2022/04/02 11:24:01;;;;;;;27.45;26.05;;;2.00;99.90;;;;;;4790894;29;20561;-72
2022/04/02 11:26:32;;;;;;;28.25;26.38;;;2.10;99.90;;;;;;4791141;29;20252;-72
2022/04/02 11:29:03;;;;;;;27.20;25.33;;;2.20;99.90;;;;;;4775765;29;20150;-72
2022/04/02 11:31:31;;;;;;;22.92;21.65;;;2.20;99.90;;;;;;4774973;29;20054;-71
2022/04/02 11:34:13;;;;;;;22.10;20.55;;;2.20;99.90;;;;;;4791619;29;20227;-72
2022/04/02 11:36:47;;;;;;;22.35;20.90;;;2.00;99.90;;;;;;4790161;29;20123;-72
2022/04/02 11:39:23;;;;;;;22.20;20.80;;;2.30;99.90;;;;;;4791134;29;20494;-72
2022/04/02 11:41:56;;;;;;;22.08;20.65;;;2.40;99.90;;;;;;4790991;29;20050;-73
2022/04/02 11:44:37;;;;;;;23.27;22.00;;;2.40;99.90;;;;;;4760514;29;20589;-74
2022/04/02 11:47:07;;;;;;;26.58;25.17;;;2.30;99.90;;;;;;4774557;29;20622;-72
2022/04/02 11:49:37;;;;;;;27.98;26.40;;;2.10;99.90;;;;;;4791612;29;20105;-72
2022/04/02 11:52:14;;;;;;;28.85;26.95;;;2.20;99.90;;;;;;4775397;29;20131;-73
2022/04/02 11:54:57;;;;;;;23.10;21.75;;;2.40;99.90;;;;;;4789579;29;20054;-73
2022/04/02 11:57:23;;;;;;;21.70;20.10;;;2.50;99.90;;;;;;4775727;29;20557;-72
2022/04/02 12:00:01;;;;;;;20.27;19.08;;;2.40;99.90;;;;;;4779335;29;20145;-73
2022/04/02 12:02:39;;;;;;;20.17;18.50;;;2.20;99.90;;;;;;4775982;29;20062;-70
2022/04/02 12:05:09;;;;;;;19.45;18.20;;;2.00;99.90;;;;;;4790325;29;20797;-73
2022/04/02 12:07:45;;;;;;;21.83;19.98;;;1.90;99.90;;;;;;4789285;29;20353;-72
2022/04/02 12:10:42;;;;;;;20.23;18.90;;;1.70;99.90;;;;;;4767575;29;20046;-73
2022/04/02 12:13:10;;;;;;;20.15;18.75;;;1.80;99.90;;;;;;4790423;29;20115;-72
2022/04/02 12:15:38;;;;;;;21.40;20.02;;;1.90;99.90;;;;;;4781125;29;20718;-73
2022/04/02 12:18:08;;;;;;;23.05;21.52;;;2.00;99.90;;;;;;4775277;29;20135;-73
2022/04/02 12:20:44;;;;;;;22.17;20.50;;;2.20;99.90;;;;;;4774298;29;20047;-72
2022/04/02 12:23:18;;;;;;;22.30;20.98;;;2.20;99.90;;;;;;4791533;29;20047;-73
2022/04/02 12:25:56;;;;;;;;;;;2.40;99.90;;;;;;4791214;29;20158;-74
2022/04/02 12:28:23;;;;;;;21.35;19.98;;;2.40;99.90;;;;;;4790983;29;20518;-75
2022/04/02 12:30:53;;;;;;;22.40;20.60;;;2.40;99.90;;;;;;4774042;29;20797;-74
2022/04/02 12:33:25;;;;;;;23.58;21.98;;;2.60;99.90;;;;;;4775996;29;20047;-76
2022/04/02 12:36:08;;;;;;;22.95;21.17;;;3.00;99.90;;;;;;4759017;29;20643;-75
2022/04/02 12:38:41;;;;;;;23.45;22.05;;;3.00;99.90;;;;;;4789545;29;20231;-73
2022/04/02 12:41:20;;;;;;;23.35;21.63;;;3.00;99.90;;;;;;4771978;29;20057;-74
2022/04/02 12:43:49;;;;;;;23.65;22.23;;;3.30;99.90;;;;;;4775421;29;20336;-74
2022/04/02 12:46:26;;;;;;;25.23;23.70;;;3.00;99.90;;;;;;4777652;29;20191;-74
2022/04/02 12:48:55;;;;;;;25.70;24.02;;;2.90;99.90;;;;;;4762607;29;20594;-75
2022/04/02 12:51:26;;;;;;;25.25;23.45;;;3.00;99.90;;;;;;4792311;29;20055;-74
2022/04/02 12:53:59;;;;;;;22.83;21.23;;;3.10;99.90;;;;;;4792603;29;20054;-73
2022/04/02 12:56:32;;;;;;;22.80;21.40;;;3.20;99.90;;;;;;4762349;29;20047;-74
2022/04/02 12:59:00;;;;;;;21.95;20.23;;;3.00;99.90;;;;;;4792673;29;20265;-74
2022/04/02 13:01:32;;;;;;;21.80;20.08;;;2.80;99.90;;;;;;4776640;29;20081;-74
2022/04/02 13:04:00;;;;;;;21.85;20.10;;;2.60;99.90;;;;;;4770656;29;20058;-74